sensor_id;sensor_type;location;lat;lon;timestamp;pressure;altitude;pressure_sealevel;temperature;humidity
30819;BME280;17546;42.674;23.284;2023-05-21T00:01:36;94605.09;;;23.45;44.95
30819;BME280;17546;42.674;23.284;2023-05-21T00:04:03;94604.75;;;23.41;45.29
30819;BME280;17546;42.674;23.284;2023-05-21T00:06:34;94603.31;;;23.22;45.45
30819;BME280;17546;42.674;23.284;2023-05-21T00:09:04;94601.53;;;23.17;45.57
30819;BME280;17546;42.674;23.284;2023-05-21T00:11:30;94580.75;;;23.05;44.96
30819;BME280;17546;42.674;23.284;2023-05-21T00:13:56;94581.50;;;23.05;44.58
30819;BME280;17546;42.674;23.284;2023-05-21T00:16:22;94599.84;;;23.14;44.73
30819;BME280;17546;42.674;23.284;2023-05-21T00:18:48;94566.16;;;22.64;45.33
30819;BME280;17546;42.674;23.284;2023-05-21T00:21:14;94590.72;;;22.88;45.09
30819;BME280;17546;42.674;23.284;2023-05-21T00:23:41;94575.47;;;22.74;45.02
30819;BME280;17546;42.674;23.284;2023-05-21T00:26:07;94588.72;;;22.81;44.85
30819;BME280;17546;42.674;23.284;2023-05-21T00:28:32;94573.53;;;22.77;44.61
30819;BME280;17546;42.674;23.284;2023-05-21T00:30:58;94563.09;;;22.69;44.77
30819;BME280;17546;42.674;23.284;2023-05-21T00:33:23;94577.44;;;22.64;44.85
30819;BME280;17546;42.674;23.284;2023-05-21T00:35:54;94580.28;;;22.64;44.67
30819;BME280;17546;42.674;23.284;2023-05-21T00:38:19;94600.38;;;22.68;44.83
30819;BME280;17546;42.674;23.284;2023-05-21T00:40:46;94584.59;;;22.65;44.70
30819;BME280;17546;42.674;23.284;2023-05-21T00:43:12;94562.69;;;22.38;45.47
30819;BME280;17546;42.674;23.284;2023-05-21T00:45:39;94566.09;;;22.72;44.64
30819;BME280;17546;42.674;23.284;2023-05-21T00:48:07;94571.41;;;22.67;44.96
30819;BME280;17546;42.674;23.284;2023-05-21T00:50:33;94591.91;;;22.68;44.95
30819;BME280;17546;42.674;23.284;2023-05-21T00:52:58;94549.72;;;22.53;44.80
30819;BME280;17546;42.674;23.284;2023-05-21T00:55:25;94580.28;;;22.64;44.57
30819;BME280;17546;42.674;23.284;2023-05-21T00:57:50;94570.22;;;22.53;45.10
30819;BME280;17546;42.674;23.284;2023-05-21T01:00:16;94561.28;;;22.47;45.23
30819;BME280;17546;42.674;23.284;2023-05-21T01:02:41;94574.72;;;22.56;44.93
30819;BME280;17546;42.674;23.284;2023-05-21T01:05:08;94563.34;;;22.46;44.71
30819;BME280;17546;42.674;23.284;2023-05-21T01:07:36;94572.47;;;22.55;45.26
30819;BME280;17546;42.674;23.284;2023-05-21T01:10:04;94547.97;;;22.40;44.82
30819;BME280;17546;42.674;23.284;2023-05-21T01:12:31;94547.41;;;22.41;44.78
30819;BME280;17546;42.674;23.284;2023-05-21T01:15:01;94558.69;;;22.41;45.10
30819;BME280;17546;42.674;23.284;2023-05-21T01:17:28;94551.63;;;22.33;45.33
30819;BME280;17546;42.674;23.284;2023-05-21T01:19:58;94552.06;;;22.46;45.15
30819;BME280;17546;42.674;23.284;2023-05-21T01:22:25;94554.81;;;22.37;45.78
30819;BME280;17546;42.674;23.284;2023-05-21T01:24:53;94555.47;;;22.45;45.48
30819;BME280;17546;42.674;23.284;2023-05-21T01:27:20;94551.06;;;22.34;45.43
30819;BME280;17546;42.674;23.284;2023-05-21T01:29:45;94568.66;;;22.42;45.31
30819;BME280;17546;42.674;23.284;2023-05-21T01:32:39;94563.03;;;22.42;45.33
30819;BME280;17546;42.674;23.284;2023-05-21T01:35:12;94541.34;;;22.27;45.26
30819;BME280;17546;42.674;23.284;2023-05-21T01:37:45;94556.72;;;22.52;45.07
30819;BME280;17546;42.674;23.284;2023-05-21T01:42:58;94560.50;;;22.46;45.17
30819;BME280;17546;42.674;23.284;2023-05-21T01:45:24;94559.19;;;22.47;45.37
30819;BME280;17546;42.674;23.284;2023-05-21T01:47:53;94532.47;;;22.31;45.34
30819;BME280;17546;42.674;23.284;2023-05-21T01:50:22;94559.94;;;22.48;45.31
30819;BME280;17546;42.674;23.284;2023-05-21T01:52:52;94544.59;;;22.41;44.95
30819;BME280;17546;42.674;23.284;2023-05-21T01:55:18;94563.34;;;22.46;45.46
30819;BME280;17546;42.674;23.284;2023-05-21T01:57:51;94547.91;;;22.30;45.25
30819;BME280;17546;42.674;23.284;2023-05-21T02:00:21;94545.59;;;22.36;45.16
30819;BME280;17546;42.674;23.284;2023-05-21T02:02:48;94533.41;;;22.34;44.89
30819;BME280;17546;42.674;23.284;2023-05-21T02:05:13;94533.47;;;22.26;45.35
30819;BME280;17546;42.674;23.284;2023-05-21T02:07:39;94535.63;;;22.35;45.46
30819;BME280;17546;42.674;23.284;2023-05-21T02:10:05;94540.13;;;22.38;45.08
30819;BME280;17546;42.674;23.284;2023-05-21T02:12:31;94523.34;;;22.23;45.46
30819;BME280;17546;42.674;23.284;2023-05-21T02:14:57;94533.81;;;22.30;45.50
30819;BME280;17546;42.674;23.284;2023-05-21T02:17:22;94541.75;;;22.41;45.16
30819;BME280;17546;42.674;23.284;2023-05-21T02:19:51;94518.97;;;22.30;45.31
30819;BME280;17546;42.674;23.284;2023-05-21T02:22:16;94531.97;;;22.25;45.54
30819;BME280;17546;42.674;23.284;2023-05-21T02:24:42;94526.22;;;22.15;45.23
30819;BME280;17546;42.674;23.284;2023-05-21T02:27:07;94523.81;;;22.12;45.26
30819;BME280;17546;42.674;23.284;2023-05-21T02:29:35;94532.28;;;22.12;45.66
30819;BME280;17546;42.674;23.284;2023-05-21T02:32:01;94546.56;;;22.14;45.44
30819;BME280;17546;42.674;23.284;2023-05-21T02:34:26;94530.69;;;22.01;45.63
30819;BME280;17546;42.674;23.284;2023-05-21T02:36:55;94533.69;;;22.03;45.67
30819;BME280;17546;42.674;23.284;2023-05-21T02:39:20;94541.72;;;22.06;45.58
30819;BME280;17546;42.674;23.284;2023-05-21T02:41:46;94540.97;;;22.06;45.50
30819;BME280;17546;42.674;23.284;2023-05-21T02:44:12;94529.88;;;22.08;45.10
30819;BME280;17546;42.674;23.284;2023-05-21T02:46:38;94514.56;;;21.94;45.32
30819;BME280;17546;42.674;23.284;2023-05-21T02:49:03;94521.16;;;21.96;45.15
30819;BME280;17546;42.674;23.284;2023-05-21T02:51:29;94525.09;;;21.93;45.58
30819;BME280;17546;42.674;23.284;2023-05-21T02:53:54;94513.19;;;21.85;45.43
30819;BME280;17546;42.674;23.284;2023-05-21T02:56:20;94515.41;;;21.86;45.71
30819;BME280;17546;42.674;23.284;2023-05-21T02:58:45;94515.97;;;21.67;45.76
30819;BME280;17546;42.674;23.284;2023-05-21T03:01:11;94522.25;;;21.76;45.76
30819;BME280;17546;42.674;23.284;2023-05-21T03:03:36;94524.78;;;21.89;45.31
30819;BME280;17546;42.674;23.284;2023-05-21T03:06:02;94501.53;;;21.63;45.66
30819;BME280;17546;42.674;23.284;2023-05-21T03:08:27;94508.81;;;21.66;45.70
30819;BME280;17546;42.674;23.284;2023-05-21T03:10:52;94500.59;;;21.61;45.74
30819;BME280;17546;42.674;23.284;2023-05-21T03:13:18;94542.59;;;21.74;45.82
30819;BME280;17546;42.674;23.284;2023-05-21T03:15:43;94535.69;;;21.67;45.53
30819;BME280;17546;42.674;23.284;2023-05-21T03:18:14;94545.28;;;21.64;45.84
30819;BME280;17546;42.674;23.284;2023-05-21T03:20:40;94546.38;;;21.69;45.63
30819;BME280;17546;42.674;23.284;2023-05-21T03:23:08;94541.31;;;21.67;45.61
30819;BME280;17546;42.674;23.284;2023-05-21T03:25:38;94539.28;;;21.60;45.68
30819;BME280;17546;42.674;23.284;2023-05-21T03:28:03;94523.84;;;21.44;45.32
30819;BME280;17546;42.674;23.284;2023-05-21T03:30:29;94534.13;;;21.49;45.34
30819;BME280;17546;42.674;23.284;2023-05-21T03:32:54;94551.19;;;21.51;45.69
30819;BME280;17546;42.674;23.284;2023-05-21T03:35:20;94554.53;;;21.57;45.71
30819;BME280;17546;42.674;23.284;2023-05-21T03:37:46;94519.16;;;21.39;45.38
30819;BME280;17546;42.674;23.284;2023-05-21T03:40:11;94530.91;;;21.53;45.29
30819;BME280;17546;42.674;23.284;2023-05-21T03:42:40;94520.53;;;21.30;45.43
30819;BME280;17546;42.674;23.284;2023-05-21T03:45:06;94554.25;;;21.45;45.46
30819;BME280;17546;42.674;23.284;2023-05-21T03:47:32;94550.69;;;21.45;45.67
30819;BME280;17546;42.674;23.284;2023-05-21T03:49:58;94533.84;;;21.30;45.67
30819;BME280;17546;42.674;23.284;2023-05-21T03:52:23;94542.03;;;21.43;45.55
30819;BME280;17546;42.674;23.284;2023-05-21T03:54:48;94524.78;;;21.39;45.71
30819;BME280;17546;42.674;23.284;2023-05-21T03:57:14;94531.56;;;21.43;45.67
30819;BME280;17546;42.674;23.284;2023-05-21T03:59:40;94542.13;;;21.60;45.67
30819;BME280;17546;42.674;23.284;2023-05-21T04:02:05;94520.09;;;21.41;45.78
30819;BME280;17546;42.674;23.284;2023-05-21T04:04:31;94539.38;;;21.53;45.91
30819;BME280;17546;42.674;23.284;2023-05-21T04:06:57;94540.56;;;21.67;45.87
30819;BME280;17546;42.674;23.284;2023-05-21T04:09:23;94548.69;;;21.63;45.77
30819;BME280;17546;42.674;23.284;2023-05-21T04:11:49;94549.78;;;21.67;46.17
30819;BME280;17546;42.674;23.284;2023-05-21T04:14:17;94516.66;;;21.51;46.03
30819;BME280;17546;42.674;23.284;2023-05-21T04:16:43;94531.81;;;21.55;46.12
30819;BME280;17546;42.674;23.284;2023-05-21T04:19:08;94525.78;;;21.59;45.98
30819;BME280;17546;42.674;23.284;2023-05-21T04:21:34;94538.50;;;21.67;45.97
30819;BME280;17546;42.674;23.284;2023-05-21T04:24:00;94546.88;;;21.75;46.25
30819;BME280;17546;42.674;23.284;2023-05-21T04:26:25;94524.00;;;21.71;45.72
30819;BME280;17546;42.674;23.284;2023-05-21T04:28:52;94548.09;;;21.90;46.07
30819;BME280;17546;42.674;23.284;2023-05-21T04:31:18;94533.88;;;21.80;46.02
30819;BME280;17546;42.674;23.284;2023-05-21T04:33:43;94539.47;;;21.87;45.89
30819;BME280;17546;42.674;23.284;2023-05-21T04:36:10;94545.38;;;21.99;46.02
30819;BME280;17546;42.674;23.284;2023-05-21T04:38:36;94544.53;;;22.06;45.88
30819;BME280;17546;42.674;23.284;2023-05-21T04:41:02;94544.88;;;22.11;45.59
30819;BME280;17546;42.674;23.284;2023-05-21T04:43:28;94549.38;;;22.14;45.58
30819;BME280;17546;42.674;23.284;2023-05-21T04:45:54;94538.50;;;22.10;45.70
30819;BME280;17546;42.674;23.284;2023-05-21T04:48:20;94546.09;;;22.25;46.01
30819;BME280;17546;42.674;23.284;2023-05-21T04:50:48;94519.66;;;22.13;45.62
30819;BME280;17546;42.674;23.284;2023-05-21T04:53:14;94542.84;;;22.28;45.66
30819;BME280;17546;42.674;23.284;2023-05-21T04:55:40;94528.91;;;22.31;45.53
30819;BME280;17546;42.674;23.284;2023-05-21T04:58:06;94531.72;;;22.48;44.91
30819;BME280;17546;42.674;23.284;2023-05-21T05:00:32;94544.41;;;22.57;44.85
30819;BME280;17546;42.674;23.284;2023-05-21T05:02:58;94543.09;;;22.58;45.20
30819;BME280;17546;42.674;23.284;2023-05-21T05:05:24;94523.19;;;22.56;44.87
30819;BME280;17546;42.674;23.284;2023-05-21T05:07:49;94543.44;;;22.44;44.52
30819;BME280;17546;42.674;23.284;2023-05-21T05:10:15;94538.03;;;22.56;44.55
30819;BME280;17546;42.674;23.284;2023-05-21T05:12:40;94540.34;;;22.67;45.04
30819;BME280;17546;42.674;23.284;2023-05-21T05:15:06;94540.19;;;22.65;44.41
30819;BME280;17546;42.674;23.284;2023-05-21T05:17:32;94537.94;;;22.64;44.75
30819;BME280;17546;42.674;23.284;2023-05-21T05:19:58;94523.34;;;22.58;44.65
30819;BME280;17546;42.674;23.284;2023-05-21T05:22:24;94550.63;;;22.73;44.65
30819;BME280;17546;42.674;23.284;2023-05-21T05:24:49;94545.22;;;22.84;44.47
30819;BME280;17546;42.674;23.284;2023-05-21T05:27:15;94528.28;;;22.84;44.67
30819;BME280;17546;42.674;23.284;2023-05-21T05:29:42;94538.25;;;22.85;44.48
30819;BME280;17546;42.674;23.284;2023-05-21T05:32:09;94526.22;;;22.67;44.77
30819;BME280;17546;42.674;23.284;2023-05-21T05:34:34;94533.44;;;22.78;44.36
30819;BME280;17546;42.674;23.284;2023-05-21T05:36:59;94544.22;;;22.89;44.39
30819;BME280;17546;42.674;23.284;2023-05-21T05:39:27;94535.28;;;22.66;44.82
30819;BME280;17546;42.674;23.284;2023-05-21T05:41:52;94518.16;;;22.81;44.22
30819;BME280;17546;42.674;23.284;2023-05-21T05:44:17;94538.06;;;22.83;44.44
30819;BME280;17546;42.674;23.284;2023-05-21T05:46:43;94531.56;;;22.90;44.08
30819;BME280;17546;42.674;23.284;2023-05-21T05:49:08;94515.59;;;22.76;44.49
30819;BME280;17546;42.674;23.284;2023-05-21T05:51:34;94526.13;;;22.75;44.11
30819;BME280;17546;42.674;23.284;2023-05-21T05:54:00;94518.28;;;23.01;44.45
30819;BME280;17546;42.674;23.284;2023-05-21T05:56:25;94523.59;;;22.97;44.07
30819;BME280;17546;42.674;23.284;2023-05-21T05:58:51;94535.03;;;23.16;43.67
30819;BME280;17546;42.674;23.284;2023-05-21T06:01:17;94511.47;;;23.04;43.35
30819;BME280;17546;42.674;23.284;2023-05-21T06:03:43;94509.97;;;23.03;44.18
30819;BME280;17546;42.674;23.284;2023-05-21T06:06:08;94526.22;;;23.12;43.30
30819;BME280;17546;42.674;23.284;2023-05-21T06:08:34;94533.97;;;23.12;43.47
30819;BME280;17546;42.674;23.284;2023-05-21T06:11:00;94505.81;;;23.04;43.16
30819;BME280;17546;42.674;23.284;2023-05-21T06:13:25;94529.34;;;23.43;42.88
30819;BME280;17546;42.674;23.284;2023-05-21T06:15:52;94527.97;;;23.35;42.87
30819;BME280;17546;42.674;23.284;2023-05-21T06:18:17;94509.47;;;22.97;43.09
30819;BME280;17546;42.674;23.284;2023-05-21T06:20:43;94504.34;;;23.03;42.38
30819;BME280;17546;42.674;23.284;2023-05-21T06:23:08;94507.13;;;23.30;42.46
30819;BME280;17546;42.674;23.284;2023-05-21T06:25:34;94497.88;;;22.75;41.96
30819;BME280;17546;42.674;23.284;2023-05-21T06:27:59;94497.19;;;23.29;41.40
30819;BME280;17546;42.674;23.284;2023-05-21T06:30:24;94515.53;;;23.84;40.95
30819;BME280;17546;42.674;23.284;2023-05-21T06:32:50;94501.47;;;24.33;41.60
30819;BME280;17546;42.674;23.284;2023-05-21T06:35:15;94496.81;;;23.99;39.44
30819;BME280;17546;42.674;23.284;2023-05-21T06:37:41;94502.81;;;24.32;38.84
30819;BME280;17546;42.674;23.284;2023-05-21T06:40:07;94504.00;;;24.29;38.92
30819;BME280;17546;42.674;23.284;2023-05-21T06:42:33;94499.53;;;24.36;38.87
30819;BME280;17546;42.674;23.284;2023-05-21T06:44:58;94518.50;;;24.52;38.22
30819;BME280;17546;42.674;23.284;2023-05-21T06:47:24;94514.75;;;24.69;38.08
30819;BME280;17546;42.674;23.284;2023-05-21T06:49:49;94494.91;;;24.79;37.96
30819;BME280;17546;42.674;23.284;2023-05-21T06:52:15;94494.47;;;24.44;38.29
30819;BME280;17546;42.674;23.284;2023-05-21T06:54:40;94508.03;;;24.74;37.95
30819;BME280;17546;42.674;23.284;2023-05-21T06:57:06;94496.88;;;24.77;37.94
30819;BME280;17546;42.674;23.284;2023-05-21T06:59:32;94510.28;;;24.66;37.50
30819;BME280;17546;42.674;23.284;2023-05-21T07:01:57;94510.72;;;24.92;37.54
30819;BME280;17546;42.674;23.284;2023-05-21T07:04:23;94490.72;;;24.80;37.55
30819;BME280;17546;42.674;23.284;2023-05-21T07:06:48;94501.28;;;24.99;37.66
30819;BME280;17546;42.674;23.284;2023-05-21T07:09:14;94498.94;;;24.86;38.05
30819;BME280;17546;42.674;23.284;2023-05-21T07:11:39;94484.94;;;25.39;36.97
30819;BME280;17546;42.674;23.284;2023-05-21T07:14:07;94488.38;;;25.68;37.24
30819;BME280;17546;42.674;23.284;2023-05-21T07:16:33;94497.50;;;25.98;36.25
30819;BME280;17546;42.674;23.284;2023-05-21T07:19:00;94483.22;;;25.86;35.78
30819;BME280;17546;42.674;23.284;2023-05-21T07:21:25;94498.59;;;26.36;36.11
30819;BME280;17546;42.674;23.284;2023-05-21T07:23:51;94486.16;;;26.63;36.16
30819;BME280;17546;42.674;23.284;2023-05-21T07:26:16;94482.22;;;26.46;34.75
30819;BME280;17546;42.674;23.284;2023-05-21T07:28:42;94494.94;;;26.45;34.13
30819;BME280;17546;42.674;23.284;2023-05-21T07:31:08;94489.03;;;26.74;33.12
30819;BME280;17546;42.674;23.284;2023-05-21T07:33:36;94480.22;;;26.37;34.23
30819;BME280;17546;42.674;23.284;2023-05-21T07:36:02;94502.19;;;26.91;34.09
30819;BME280;17546;42.674;23.284;2023-05-21T07:38:27;94498.78;;;26.50;34.46
30819;BME280;17546;42.674;23.284;2023-05-21T07:40:53;94505.75;;;27.25;34.36
30819;BME280;17546;42.674;23.284;2023-05-21T07:43:18;94490.75;;;27.13;34.48
30819;BME280;17546;42.674;23.284;2023-05-21T07:45:43;94501.84;;;27.66;33.97
30819;BME280;17546;42.674;23.284;2023-05-21T07:48:09;94493.94;;;27.88;33.48
30819;BME280;17546;42.674;23.284;2023-05-21T07:50:35;94502.03;;;28.29;33.15
30819;BME280;17546;42.674;23.284;2023-05-21T07:53:02;94492.31;;;27.85;32.06
30819;BME280;17546;42.674;23.284;2023-05-21T07:55:27;94482.16;;;27.93;30.56
30819;BME280;17546;42.674;23.284;2023-05-21T07:57:52;94485.72;;;28.17;31.24
30819;BME280;17546;42.674;23.284;2023-05-21T08:00:18;94478.69;;;27.59;30.55
30819;BME280;17546;42.674;23.284;2023-05-21T08:02:43;94477.34;;;27.96;30.67
30819;BME280;17546;42.674;23.284;2023-05-21T08:05:09;94495.22;;;28.22;32.12
30819;BME280;17546;42.674;23.284;2023-05-21T08:07:34;94473.13;;;27.97;31.31
30819;BME280;17546;42.674;23.284;2023-05-21T08:10:00;94484.00;;;28.12;30.73
30819;BME280;17546;42.674;23.284;2023-05-21T08:12:26;94487.25;;;27.95;30.58
30819;BME280;17546;42.674;23.284;2023-05-21T08:14:51;94475.97;;;27.97;29.10
30819;BME280;17546;42.674;23.284;2023-05-21T08:17:16;94478.44;;;28.14;29.21
30819;BME280;17546;42.674;23.284;2023-05-21T08:19:43;94478.94;;;27.75;28.01
30819;BME280;17546;42.674;23.284;2023-05-21T08:22:08;94490.97;;;27.74;27.76
30819;BME280;17546;42.674;23.284;2023-05-21T08:24:34;94500.97;;;27.87;29.17
30819;BME280;17546;42.674;23.284;2023-05-21T08:26:59;94474.09;;;27.31;28.01
30819;BME280;17546;42.674;23.284;2023-05-21T08:29:25;94478.84;;;27.50;28.28
30819;BME280;17546;42.674;23.284;2023-05-21T08:31:50;94495.88;;;27.73;27.53
30819;BME280;17546;42.674;23.284;2023-05-21T08:34:16;94494.91;;;27.80;27.88
30819;BME280;17546;42.674;23.284;2023-05-21T08:36:42;94483.78;;;27.96;28.14
30819;BME280;17546;42.674;23.284;2023-05-21T08:39:10;94494.66;;;28.12;27.73
30819;BME280;17546;42.674;23.284;2023-05-21T08:41:37;94479.06;;;27.66;26.69
30819;BME280;17546;42.674;23.284;2023-05-21T08:44:09;94499.25;;;27.70;27.45
30819;BME280;17546;42.674;23.284;2023-05-21T08:46:38;94495.03;;;27.71;26.73
30819;BME280;17546;42.674;23.284;2023-05-21T08:49:05;94478.47;;;27.67;27.19
30819;BME280;17546;42.674;23.284;2023-05-21T08:51:32;94478.34;;;27.65;27.36
30819;BME280;17546;42.674;23.284;2023-05-21T08:53:58;94482.28;;;27.36;26.24
30819;BME280;17546;42.674;23.284;2023-05-21T08:56:26;94490.31;;;27.75;27.62
30819;BME280;17546;42.674;23.284;2023-05-21T08:58:51;94488.84;;;27.86;26.39
30819;BME280;17546;42.674;23.284;2023-05-21T09:01:17;94468.63;;;28.17;26.80
30819;BME280;17546;42.674;23.284;2023-05-21T09:03:44;94468.78;;;27.84;25.42
30819;BME280;17546;42.674;23.284;2023-05-21T09:06:11;94489.56;;;28.59;26.42
30819;BME280;17546;42.674;23.284;2023-05-21T09:08:51;94495.75;;;28.68;25.72
30819;BME280;17546;42.674;23.284;2023-05-21T09:11:21;94488.25;;;28.86;26.25
30819;BME280;17546;42.674;23.284;2023-05-21T09:13:47;94492.53;;;28.61;26.92
30819;BME280;17546;42.674;23.284;2023-05-21T09:16:13;94488.69;;;28.19;26.56
30819;BME280;17546;42.674;23.284;2023-05-21T09:18:39;94493.19;;;27.64;27.06
30819;BME280;17546;42.674;23.284;2023-05-21T09:21:27;94486.25;;;27.90;27.22
30819;BME280;17546;42.674;23.284;2023-05-21T09:23:54;94484.44;;;28.32;27.98
30819;BME280;17546;42.674;23.284;2023-05-21T09:26:20;94467.06;;;28.02;27.16
30819;BME280;17546;42.674;23.284;2023-05-21T09:28:46;94479.91;;;28.15;26.68
30819;BME280;17546;42.674;23.284;2023-05-21T09:31:11;94478.50;;;28.40;27.77
30819;BME280;17546;42.674;23.284;2023-05-21T09:33:47;94496.13;;;28.99;27.46
30819;BME280;17546;42.674;23.284;2023-05-21T09:36:12;94494.91;;;28.65;26.69
30819;BME280;17546;42.674;23.284;2023-05-21T09:38:37;94491.56;;;28.69;26.65
30819;BME280;17546;42.674;23.284;2023-05-21T09:41:03;94493.19;;;29.37;27.42
30819;BME280;17546;42.674;23.284;2023-05-21T09:43:30;94471.94;;;29.26;25.89
30819;BME280;17546;42.674;23.284;2023-05-21T09:45:56;94486.41;;;29.83;25.26
30819;BME280;17546;42.674;23.284;2023-05-21T09:51:17;94484.50;;;30.02;22.72
30819;BME280;17546;42.674;23.284;2023-05-21T09:53:51;94470.00;;;30.12;23.54
30819;BME280;17546;42.674;23.284;2023-05-21T09:56:21;94465.78;;;29.85;23.69
30819;BME280;17546;42.674;23.284;2023-05-21T09:58:57;94481.31;;;30.23;23.56
30819;BME280;17546;42.674;23.284;2023-05-21T10:01:24;94452.84;;;30.39;23.98
30819;BME280;17546;42.674;23.284;2023-05-21T10:03:55;94479.19;;;30.52;23.44
30819;BME280;17546;42.674;23.284;2023-05-21T10:06:23;94468.69;;;30.56;22.60
30819;BME280;17546;42.674;23.284;2023-05-21T10:08:52;94457.47;;;30.46;22.55
30819;BME280;17546;42.674;23.284;2023-05-21T10:11:20;94471.56;;;30.42;22.18
30819;BME280;17546;42.674;23.284;2023-05-21T10:13:51;94466.72;;;30.45;22.19
30819;BME280;17546;42.674;23.284;2023-05-21T10:16:20;94463.38;;;30.94;22.37
30819;BME280;17546;42.674;23.284;2023-05-21T10:18:46;94461.38;;;30.97;22.22
30819;BME280;17546;42.674;23.284;2023-05-21T10:21:13;94466.81;;;31.06;22.99
30819;BME280;17546;42.674;23.284;2023-05-21T10:23:40;94462.91;;;31.29;22.90
30819;BME280;17546;42.674;23.284;2023-05-21T10:26:07;94453.09;;;31.19;23.58
30819;BME280;17546;42.674;23.284;2023-05-21T10:28:32;94439.41;;;31.01;23.50
30819;BME280;17546;42.674;23.284;2023-05-21T10:30:58;94448.06;;;30.87;22.31
30819;BME280;17546;42.674;23.284;2023-05-21T10:33:25;94455.09;;;31.00;22.99
30819;BME280;17546;42.674;23.284;2023-05-21T10:35:52;94459.63;;;31.05;22.98
30819;BME280;17546;42.674;23.284;2023-05-21T10:38:20;94431.88;;;31.24;23.90
30819;BME280;17546;42.674;23.284;2023-05-21T10:40:46;94437.25;;;31.16;22.54
30819;BME280;17546;42.674;23.284;2023-05-21T10:43:43;94455.34;;;30.61;22.27
30819;BME280;17546;42.674;23.284;2023-05-21T10:46:25;94464.84;;;30.95;23.19
30819;BME280;17546;42.674;23.284;2023-05-21T10:52:08;94455.13;;;30.57;22.51
30819;BME280;17546;42.674;23.284;2023-05-21T10:54:52;94447.66;;;30.36;23.07
30819;BME280;17546;42.674;23.284;2023-05-21T10:57:41;94454.66;;;30.33;22.93
30819;BME280;17546;42.674;23.284;2023-05-21T11:00:11;94440.03;;;30.26;24.25
30819;BME280;17546;42.674;23.284;2023-05-21T11:02:37;94461.63;;;30.43;23.76
30819;BME280;17546;42.674;23.284;2023-05-21T11:05:03;94454.31;;;30.26;23.21
30819;BME280;17546;42.674;23.284;2023-05-21T11:07:51;94465.53;;;30.22;23.20
30819;BME280;17546;42.674;23.284;2023-05-21T11:13:05;94452.47;;;30.03;24.32
30819;BME280;17546;42.674;23.284;2023-05-21T11:21:10;94447.59;;;29.78;25.06
30819;BME280;17546;42.674;23.284;2023-05-21T11:23:55;94454.69;;;29.77;25.80
30819;BME280;17546;42.674;23.284;2023-05-21T11:26:28;94446.66;;;29.74;25.81
30819;BME280;17546;42.674;23.284;2023-05-21T11:31:28;94447.50;;;29.76;26.00
30819;BME280;17546;42.674;23.284;2023-05-21T11:34:12;94440.97;;;29.88;25.66
30819;BME280;17546;42.674;23.284;2023-05-21T11:36:39;94438.81;;;29.74;24.71
30819;BME280;17546;42.674;23.284;2023-05-21T11:39:14;94429.94;;;29.68;26.32
30819;BME280;17546;42.674;23.284;2023-05-21T11:41:51;94429.41;;;29.72;26.27
30819;BME280;17546;42.674;23.284;2023-05-21T11:44:17;94390.72;;;29.41;26.52
30819;BME280;17546;42.674;23.284;2023-05-21T11:46:42;94431.19;;;29.65;26.04
30819;BME280;17546;42.674;23.284;2023-05-21T11:49:08;94430.56;;;29.53;26.08
30819;BME280;17546;42.674;23.284;2023-05-21T11:51:35;94402.44;;;29.33;26.17
30819;BME280;17546;42.674;23.284;2023-05-21T11:54:01;94413.13;;;29.33;26.85
30819;BME280;17546;42.674;23.284;2023-05-21T11:56:27;94403.19;;;28.94;25.76
30819;BME280;17546;42.674;23.284;2023-05-21T11:58:56;94384.59;;;28.93;26.07
30819;BME280;17546;42.674;23.284;2023-05-21T12:01:24;94418.66;;;29.17;25.91
30819;BME280;17546;42.674;23.284;2023-05-21T12:03:50;94404.22;;;29.13;26.74
30819;BME280;17546;42.674;23.284;2023-05-21T12:06:15;94421.84;;;29.23;28.03
30819;BME280;17546;42.674;23.284;2023-05-21T12:08:50;94424.50;;;28.93;25.88
30819;BME280;17546;42.674;23.284;2023-05-21T12:11:16;94412.97;;;28.77;26.67
30819;BME280;17546;42.674;23.284;2023-05-21T12:13:42;94413.13;;;28.68;25.69
30819;BME280;17546;42.674;23.284;2023-05-21T12:16:08;94409.94;;;28.61;25.91
30819;BME280;17546;42.674;23.284;2023-05-21T12:18:35;94427.03;;;28.61;26.67
30819;BME280;17546;42.674;23.284;2023-05-21T12:21:01;94416.41;;;28.13;26.92
30819;BME280;17546;42.674;23.284;2023-05-21T12:23:26;94413.66;;;28.27;27.91
30819;BME280;17546;42.674;23.284;2023-05-21T12:25:52;94399.19;;;28.22;27.94
30819;BME280;17546;42.674;23.284;2023-05-21T12:28:25;94394.34;;;28.25;28.62
30819;BME280;17546;42.674;23.284;2023-05-21T12:30:50;94398.97;;;28.07;28.20
30819;BME280;17546;42.674;23.284;2023-05-21T12:33:17;94399.97;;;28.11;28.65
30819;BME280;17546;42.674;23.284;2023-05-21T12:35:47;94389.41;;;27.53;28.15
30819;BME280;17546;42.674;23.284;2023-05-21T12:38:14;94378.41;;;27.59;28.17
30819;BME280;17546;42.674;23.284;2023-05-21T12:40:39;94403.34;;;27.96;29.20
30819;BME280;17546;42.674;23.284;2023-05-21T12:43:05;94390.63;;;27.73;29.38
30819;BME280;17546;42.674;23.284;2023-05-21T12:45:31;94386.91;;;27.82;29.30
30819;BME280;17546;42.674;23.284;2023-05-21T12:48:01;94376.75;;;27.79;29.09
30819;BME280;17546;42.674;23.284;2023-05-21T12:50:27;94377.03;;;27.72;29.10
30819;BME280;17546;42.674;23.284;2023-05-21T12:52:53;94401.50;;;27.89;29.41
30819;BME280;17546;42.674;23.284;2023-05-21T12:55:21;94396.41;;;27.99;29.25
30819;BME280;17546;42.674;23.284;2023-05-21T12:57:47;94395.94;;;27.91;29.37
30819;BME280;17546;42.674;23.284;2023-05-21T13:00:12;94399.13;;;27.97;29.24
30819;BME280;17546;42.674;23.284;2023-05-21T13:02:38;94395.16;;;28.02;29.61
30819;BME280;17546;42.674;23.284;2023-05-21T13:05:09;94385.06;;;27.87;29.64
30819;BME280;17546;42.674;23.284;2023-05-21T13:07:36;94393.69;;;28.01;30.68
30819;BME280;17546;42.674;23.284;2023-05-21T13:10:03;94406.53;;;28.02;30.49